TAF KDAG
KDAG 081731Z 0818/0918 28007KT P6SM FEW100 FM090200 24012KT P6SM FEW200 FM091400 25020G28KT P6SM FEW050 BKN100=
METAR KDAG
WC KDAG
WS KDAG
WV KDAG